createdAt,value
2018-06-21T00:01:47.555Z,19.68
2018-06-21T00:04:16.417Z,19.58
2018-06-21T00:06:45.187Z,19.61
2018-06-21T00:09:13.975Z,19.71
2018-06-21T00:11:42.729Z,19.67
2018-06-21T00:14:11.434Z,19.76
2018-06-21T00:16:40.154Z,19.85
2018-06-21T00:19:08.874Z,19.88
2018-06-21T00:21:37.593Z,19.84
2018-06-21T00:24:06.402Z,19.99
2018-06-21T00:26:35.139Z,20.17
2018-06-21T00:29:03.877Z,20.22
2018-06-21T00:31:32.700Z,20.14
2018-06-21T00:34:01.427Z,20.11
2018-06-21T00:36:30.190Z,20.06
2018-06-21T00:38:58.906Z,20.08
2018-06-21T00:41:27.628Z,20.10
2018-06-21T00:43:56.332Z,20.17
2018-06-21T00:46:25.033Z,20.20
2018-06-21T00:48:53.894Z,20.26
2018-06-21T00:51:22.597Z,20.17
2018-06-21T00:53:51.326Z,20.14
2018-06-21T00:56:20.878Z,20.13
2018-06-21T00:58:50.258Z,20.07
2018-06-21T01:01:19.569Z,19.95
2018-06-21T01:03:48.806Z,19.96
2018-06-21T01:06:17.729Z,20.02
2018-06-21T01:08:46.451Z,20.08
2018-06-21T01:11:15.172Z,20.10
2018-06-21T01:13:43.917Z,20.04
2018-06-21T01:16:12.717Z,19.96
2018-06-21T01:18:41.438Z,19.86
2018-06-21T01:21:10.158Z,19.78
2018-06-21T01:23:38.866Z,19.75
2018-06-21T01:26:07.590Z,19.74
2018-06-21T01:28:36.319Z,19.71
2018-06-21T01:31:05.059Z,19.71
2018-06-21T01:33:33.757Z,19.68
2018-06-21T01:36:02.481Z,19.68
2018-06-21T01:38:31.299Z,19.74
2018-06-21T01:41:00.012Z,19.80
2018-06-21T01:43:28.718Z,19.81
2018-06-21T01:45:57.415Z,19.93
2018-06-21T01:48:26.133Z,19.95
2018-06-21T01:50:54.856Z,19.92
2018-06-21T01:53:23.573Z,19.98
2018-06-21T01:55:52.322Z,19.98
2018-06-21T01:58:21.037Z,20.03
2018-06-21T02:00:49.746Z,19.99
2018-06-21T02:03:18.462Z,20.12
2018-06-21T02:05:47.186Z,20.08
2018-06-21T02:08:15.894Z,20.08
2018-06-21T02:10:44.620Z,20.00
2018-06-21T02:13:13.330Z,19.89
2018-06-21T02:15:42.034Z,19.80
2018-06-21T02:18:10.742Z,19.76
2018-06-21T02:20:39.475Z,19.71
2018-06-21T02:23:08.208Z,19.69
2018-06-21T02:25:36.960Z,19.64
2018-06-21T02:28:05.722Z,19.73
2018-06-21T02:30:34.438Z,19.86
2018-06-21T02:33:03.163Z,19.92
2018-06-21T02:35:31.922Z,20.04
2018-06-21T02:38:00.644Z,20.04
2018-06-21T02:40:29.349Z,20.06
2018-06-21T02:42:58.078Z,20.17
2018-06-21T02:45:26.803Z,20.28
2018-06-21T02:47:55.596Z,20.30
2018-06-21T02:50:24.459Z,20.32
2018-06-21T02:52:53.185Z,20.24
2018-06-21T02:55:21.923Z,20.14
2018-06-21T02:57:50.694Z,20.06
2018-06-21T03:00:19.812Z,20.04
2018-06-21T03:02:48.607Z,20.00
2018-06-21T03:05:17.339Z,20.10
2018-06-21T03:07:46.084Z,20.20
2018-06-21T03:10:14.847Z,20.20
2018-06-21T03:12:43.680Z,20.22
2018-06-21T03:15:12.531Z,20.19
2018-06-21T03:17:41.299Z,20.19
2018-06-21T03:20:10.038Z,20.24
2018-06-21T03:22:38.802Z,20.37
2018-06-21T03:25:07.614Z,20.42
2018-06-21T03:27:36.387Z,20.37
2018-06-21T03:30:05.146Z,20.32
2018-06-21T03:32:33.900Z,20.30
2018-06-21T03:35:02.645Z,20.36
2018-06-21T03:37:31.411Z,20.52
2018-06-21T03:40:00.282Z,20.73
2018-06-21T03:42:29.070Z,21.13
2018-06-21T03:44:57.846Z,22.09
2018-06-21T03:47:26.581Z,23.41
2018-06-21T03:49:55.354Z,24.65
2018-06-21T03:52:24.103Z,25.88
2018-06-21T03:54:52.844Z,26.06
2018-06-21T03:57:21.559Z,26.62
2018-06-21T03:59:50.318Z,27.46
2018-06-21T04:02:19.103Z,28.07
2018-06-21T04:04:47.889Z,28.42
2018-06-21T04:07:16.618Z,28.12
2018-06-21T04:09:45.377Z,28.55
2018-06-21T04:12:14.111Z,28.83
2018-06-21T04:14:42.825Z,30.03
2018-06-21T04:17:11.529Z,30.93
2018-06-21T04:19:40.235Z,30.85
2018-06-21T04:22:09.003Z,31.59
2018-06-21T04:24:38.077Z,32.59
2018-06-21T04:27:06.893Z,33.18
2018-06-21T04:29:35.610Z,33.76
2018-06-21T04:32:04.330Z,34.47
2018-06-21T04:34:33.162Z,35.10
2018-06-21T04:37:01.984Z,34.72
2018-06-21T04:39:31.231Z,33.94
2018-06-21T04:42:00.230Z,33.68
2018-06-21T04:44:29.332Z,34.44
2018-06-21T04:46:58.630Z,34.48
2018-06-21T04:49:27.518Z,34.54
2018-06-21T04:51:56.270Z,34.66
2018-06-21T04:54:24.978Z,34.83
2018-06-21T04:56:53.682Z,34.49
2018-06-21T04:59:22.433Z,35.13
2018-06-21T05:01:51.554Z,35.55
2018-06-21T05:04:20.794Z,35.96
2018-06-21T05:06:49.624Z,35.87
2018-06-21T05:09:18.367Z,35.35
2018-06-21T05:11:47.111Z,35.94
2018-06-21T05:14:15.825Z,34.98
2018-06-21T05:16:44.540Z,35.59
2018-06-21T05:19:13.268Z,35.86
2018-06-21T05:21:42.116Z,36.34
2018-06-21T05:24:10.837Z,37.14
2018-06-21T05:26:39.566Z,36.36
2018-06-21T05:29:08.289Z,36.91
2018-06-21T05:44:10.233Z,37.35
2018-06-21T05:46:38.997Z,37.87
2018-06-21T05:49:07.714Z,38.57
2018-06-21T05:51:36.461Z,38.30
2018-06-21T05:54:05.207Z,38.10
2018-06-21T05:56:34.017Z,38.00
2018-06-21T05:59:02.826Z,38.51
2018-06-21T06:01:31.549Z,38.86
2018-06-21T06:04:00.285Z,38.51
2018-06-21T06:06:29.063Z,39.26
2018-06-21T06:08:57.833Z,38.93
2018-06-21T06:11:26.561Z,39.59
2018-06-21T06:13:55.290Z,39.84
2018-06-21T06:16:24.032Z,40.39
2018-06-21T06:18:52.781Z,39.53
2018-06-21T06:21:21.555Z,38.94
2018-06-21T06:23:50.442Z,40.10
2018-06-21T06:26:19.158Z,39.20
2018-06-21T06:28:47.872Z,39.94
2018-06-21T06:31:16.634Z,40.18
2018-06-21T06:33:45.379Z,39.18
2018-06-21T06:36:14.172Z,39.46
2018-06-21T06:38:42.968Z,39.75
2018-06-21T06:41:11.874Z,40.35
2018-06-21T06:43:40.609Z,40.77
2018-06-21T06:46:09.350Z,41.01
2018-06-21T06:48:38.182Z,41.76
2018-06-21T06:51:06.927Z,42.79
2018-06-21T06:53:35.762Z,41.78
2018-06-21T06:56:04.546Z,41.58
2018-06-21T06:58:33.346Z,41.96
2018-06-21T07:01:02.068Z,41.04
2018-06-21T07:03:30.802Z,40.39
2018-06-21T07:05:59.549Z,40.36
2018-06-21T07:08:28.421Z,40.28
2018-06-21T07:10:57.130Z,40.64
2018-06-21T07:13:25.862Z,40.78
2018-06-21T07:15:54.570Z,39.80
2018-06-21T07:18:23.293Z,39.99
2018-06-21T07:20:52.049Z,40.63
2018-06-21T07:23:20.886Z,40.00
2018-06-21T07:25:49.817Z,39.75
2018-06-21T07:28:18.537Z,40.61
2018-06-21T07:30:47.247Z,40.15
2018-06-21T07:33:16.013Z,38.62
2018-06-21T07:35:44.755Z,39.93
2018-06-21T07:38:13.725Z,40.39
2018-06-21T07:40:42.460Z,40.25
2018-06-21T07:43:11.227Z,37.36
2018-06-21T07:45:39.994Z,38.67
2018-06-21T07:48:08.727Z,39.64
2018-06-21T07:50:37.675Z,40.27
2018-06-21T07:53:06.447Z,40.51
2018-06-21T07:55:35.165Z,39.71
2018-06-21T07:58:03.869Z,39.68
2018-06-21T08:00:32.797Z,39.05
2018-06-21T08:03:01.513Z,40.09
2018-06-21T08:05:30.239Z,39.71
2018-06-21T08:07:59.031Z,39.88
2018-06-21T08:10:27.757Z,40.73
2018-06-21T08:12:56.496Z,40.24
2018-06-21T08:15:25.226Z,40.07
2018-06-21T08:17:53.966Z,39.90
2018-06-21T08:20:22.699Z,39.40
2018-06-21T08:22:51.440Z,39.54
2018-06-21T08:25:20.204Z,38.95
2018-06-21T08:27:49.018Z,39.48
2018-06-21T08:30:17.765Z,39.87
2018-06-21T08:32:47.482Z,41.18
2018-06-21T08:35:16.557Z,40.25
2018-06-21T08:37:45.323Z,40.18
2018-06-21T08:40:14.098Z,40.20
2018-06-21T08:42:42.865Z,40.29
2018-06-21T08:45:11.573Z,40.03
2018-06-21T08:47:40.298Z,40.21
2018-06-21T08:50:09.015Z,40.34
2018-06-21T08:52:37.728Z,40.33
2018-06-21T08:55:06.837Z,40.47
2018-06-21T08:57:35.652Z,40.51
2018-06-21T09:00:04.419Z,40.36
2018-06-21T09:02:33.566Z,39.84
2018-06-21T09:05:02.330Z,39.50
2018-06-21T09:20:31.035Z,40.31
2018-06-21T09:22:59.765Z,40.32
2018-06-21T09:25:28.511Z,40.41
2018-06-21T09:27:57.255Z,40.38
2018-06-21T09:30:25.981Z,40.29
2018-06-21T09:32:54.738Z,40.47
2018-06-21T09:35:23.455Z,40.39
2018-06-21T09:37:57.381Z,39.55
2018-06-21T09:40:31.254Z,40.59
2018-06-21T09:43:05.149Z,40.88
2018-06-21T09:45:38.930Z,40.63
2018-06-21T09:48:12.901Z,40.49
2018-06-21T09:50:41.642Z,40.27
2018-06-21T09:53:10.388Z,39.59
2018-06-21T09:55:39.100Z,39.20
2018-06-21T09:58:07.805Z,39.19
2018-06-21T10:00:41.947Z,39.30
2018-06-21T10:03:10.664Z,38.77
2018-06-21T10:05:39.389Z,39.12
2018-06-21T10:08:08.130Z,39.91
2018-06-21T10:10:36.871Z,40.60
2018-06-21T10:13:05.618Z,40.61
2018-06-21T10:15:34.992Z,40.88
2018-06-21T10:18:04.170Z,40.44
2018-06-21T10:20:33.593Z,39.89
2018-06-21T10:23:02.671Z,40.48
2018-06-21T10:25:31.534Z,40.02
2018-06-21T10:28:00.444Z,39.05
2018-06-21T10:30:29.232Z,39.08
2018-06-21T10:32:58.058Z,38.54
2018-06-21T10:35:26.855Z,39.07
2018-06-21T10:37:55.710Z,39.81
2018-06-21T10:40:24.546Z,40.46
2018-06-21T10:42:53.643Z,39.80
2018-06-21T10:45:22.560Z,39.07
2018-06-21T10:47:51.550Z,39.57
2018-06-21T10:50:20.403Z,40.64
2018-06-21T10:52:49.355Z,41.41
2018-06-21T10:55:18.083Z,41.96
2018-06-21T10:57:47.051Z,42.02
2018-06-21T11:00:15.869Z,42.38
2018-06-21T11:02:45.018Z,41.18
2018-06-21T11:05:13.899Z,40.45
2018-06-21T11:07:43.220Z,40.86
2018-06-21T11:10:13.622Z,40.33
2018-06-21T11:12:42.456Z,40.79
2018-06-21T11:15:11.150Z,40.95
2018-06-21T11:17:39.890Z,40.65
2018-06-21T11:20:09.436Z,41.50
2018-06-21T11:22:41.066Z,41.46
2018-06-21T11:25:09.796Z,40.52
2018-06-21T11:27:38.557Z,41.21
2018-06-21T11:30:07.616Z,41.38
2018-06-21T11:32:36.296Z,41.77
2018-06-21T11:35:05.047Z,42.32
2018-06-21T11:37:34.438Z,42.12
2018-06-21T11:40:03.180Z,41.07
2018-06-21T11:42:31.909Z,40.92
2018-06-21T11:45:00.625Z,40.02
2018-06-21T11:47:29.349Z,39.37
2018-06-21T11:49:58.070Z,40.35
2018-06-21T11:52:26.766Z,40.60
2018-06-21T11:54:55.498Z,41.11
2018-06-21T11:57:24.201Z,41.07
2018-06-21T11:59:52.969Z,40.39
2018-06-21T12:02:21.748Z,41.04
2018-06-21T12:04:50.434Z,42.04
2018-06-21T12:07:19.204Z,40.72
2018-06-21T12:09:47.905Z,40.65
2018-06-21T12:12:16.638Z,41.68
2018-06-21T12:14:45.441Z,41.35
2018-06-21T12:17:14.209Z,41.74
2018-06-21T12:19:42.905Z,41.49
2018-06-21T12:22:11.798Z,41.04
2018-06-21T12:24:40.540Z,40.57
2018-06-21T12:27:09.405Z,39.39
2018-06-21T12:29:38.239Z,39.08
2018-06-21T12:32:06.977Z,37.74
2018-06-21T12:34:35.726Z,36.33
2018-06-21T12:37:04.482Z,35.29
2018-06-21T12:39:33.253Z,34.50
2018-06-21T12:42:02.006Z,34.55
2018-06-21T12:44:30.740Z,34.48
2018-06-21T12:46:59.557Z,34.33
2018-06-21T12:49:28.331Z,34.43
2018-06-21T12:51:57.206Z,34.59
2018-06-21T12:54:26.194Z,34.46
2018-06-21T12:56:54.921Z,34.10
2018-06-21T12:59:23.643Z,34.19
2018-06-21T13:01:52.397Z,34.16
2018-06-21T13:04:21.225Z,34.34
2018-06-21T13:06:50.017Z,34.39
2018-06-21T13:09:31.549Z,34.54
2018-06-21T13:12:25.204Z,34.30
2018-06-21T13:14:54.335Z,34.49
2018-06-21T13:17:23.091Z,34.51
2018-06-21T13:19:51.847Z,34.52
2018-06-21T13:22:20.727Z,34.08
2018-06-21T13:24:49.477Z,34.04
2018-06-21T13:27:18.426Z,33.87
2018-06-21T13:29:47.126Z,33.74
2018-06-21T13:32:15.854Z,33.81
2018-06-21T13:34:44.553Z,33.79
2018-06-21T13:37:13.422Z,33.92
2018-06-21T13:39:42.204Z,34.12
2018-06-21T13:42:10.901Z,34.28
2018-06-21T13:44:39.614Z,34.32
2018-06-21T13:47:08.436Z,34.33
2018-06-21T13:49:37.161Z,34.26
2018-06-21T13:52:06.242Z,34.06
2018-06-21T13:57:08.771Z,31.98
2018-06-21T13:59:37.506Z,31.31
2018-06-21T14:02:06.278Z,31.29
2018-06-21T14:04:34.987Z,31.19
2018-06-21T14:07:03.679Z,30.81
2018-06-21T14:09:32.428Z,30.64
2018-06-21T14:12:01.143Z,30.45
2018-06-21T14:14:29.845Z,30.12
2018-06-21T14:16:58.541Z,30.25
2018-06-21T14:19:27.246Z,30.37
2018-06-21T14:21:56.476Z,30.22
2018-06-21T14:24:25.233Z,30.19
2018-06-21T14:26:53.921Z,30.05
2018-06-21T14:29:22.626Z,29.93
2018-06-21T14:31:51.310Z,29.87
2018-06-21T14:34:20.027Z,29.69
2018-06-21T14:36:48.726Z,29.60
2018-06-21T14:39:17.438Z,29.74
2018-06-21T14:41:46.341Z,30.00
2018-06-21T14:44:15.479Z,30.13
2018-06-21T14:46:44.252Z,30.26
2018-06-21T14:49:12.957Z,30.22
2018-06-21T14:51:41.661Z,30.35
2018-06-21T14:54:10.377Z,30.35
2018-06-21T14:56:39.130Z,30.34
2018-06-21T14:59:07.998Z,30.33
2018-06-21T15:01:36.847Z,30.32
2018-06-21T15:04:05.780Z,30.24
2018-06-21T15:06:34.857Z,30.05
2018-06-21T15:09:04.575Z,30.00
2018-06-21T15:11:33.133Z,30.19
2018-06-21T15:14:01.832Z,30.23
2018-06-21T15:16:30.525Z,30.28
2018-06-21T15:18:59.227Z,30.22
2018-06-21T15:21:27.966Z,30.24
2018-06-21T15:23:56.695Z,30.18
2018-06-21T15:26:25.442Z,30.06
2018-06-21T15:28:54.150Z,29.98
2018-06-21T15:31:22.922Z,30.01
2018-06-21T15:33:51.622Z,29.70
2018-06-21T15:36:20.375Z,29.85
2018-06-21T15:38:49.065Z,29.87
2018-06-21T15:41:17.753Z,29.77
2018-06-21T15:43:46.466Z,29.73
2018-06-21T15:46:15.163Z,29.72
2018-06-21T15:48:43.871Z,29.70
2018-06-21T15:51:12.578Z,29.67
2018-06-21T15:53:41.286Z,29.79
2018-06-21T15:56:10.050Z,29.98
2018-06-21T15:58:38.790Z,30.09
2018-06-21T16:01:07.567Z,30.17
2018-06-21T16:03:36.469Z,30.18
2018-06-21T16:06:05.332Z,30.10
2018-06-21T16:08:34.074Z,29.93
2018-06-21T16:11:02.778Z,29.87
2018-06-21T16:13:31.833Z,29.56
2018-06-21T16:16:00.734Z,29.43
2018-06-21T16:18:29.613Z,29.38
2018-06-21T16:20:58.330Z,29.28
2018-06-21T16:23:27.030Z,29.07
2018-06-21T16:25:55.722Z,28.93
2018-06-21T16:28:24.540Z,28.82
2018-06-21T16:30:53.149Z,28.66
2018-06-21T16:33:21.869Z,28.59
2018-06-21T16:35:50.550Z,28.31
2018-06-21T16:38:19.265Z,28.21
2018-06-21T16:40:48.035Z,28.11
2018-06-21T16:43:16.717Z,27.98
2018-06-21T16:45:45.437Z,27.85
2018-06-21T16:48:14.163Z,27.76
2018-06-21T16:50:42.871Z,27.71
2018-06-21T16:53:11.575Z,27.60
2018-06-21T16:55:40.306Z,27.51
2018-06-21T16:58:09.201Z,27.43
2018-06-21T17:00:37.911Z,27.31
2018-06-21T17:03:06.605Z,27.12
2018-06-21T17:05:35.356Z,26.80
2018-06-21T17:08:04.124Z,26.60
2018-06-21T17:10:32.877Z,26.37
2018-06-21T17:13:01.630Z,26.21
2018-06-21T17:15:30.326Z,26.09
2018-06-21T17:17:59.488Z,26.03
2018-06-21T17:20:28.510Z,25.96
2018-06-21T17:22:57.710Z,25.92
2018-06-21T17:25:26.813Z,25.84
2018-06-21T17:27:56.109Z,25.77
2018-06-21T17:30:25.239Z,25.70
2018-06-21T17:32:54.094Z,25.63
2018-06-21T17:35:23.306Z,25.56
2018-06-21T17:37:52.301Z,25.48
2018-06-21T17:40:21.591Z,25.36
2018-06-21T17:42:50.897Z,25.27
2018-06-21T17:45:19.963Z,25.17
2018-06-21T17:47:49.127Z,25.09
2018-06-21T17:50:18.323Z,25.00
2018-06-21T17:52:47.493Z,24.98
2018-06-21T17:55:16.556Z,24.85
2018-06-21T17:57:45.920Z,24.69
2018-06-21T18:00:15.007Z,24.59
2018-06-21T18:02:44.408Z,24.51
2018-06-21T18:05:13.569Z,24.39
2018-06-21T18:07:42.790Z,24.24
2018-06-21T18:10:11.753Z,24.11
2018-06-21T18:12:40.789Z,24.03
2018-06-21T18:15:09.957Z,23.97
2018-06-21T18:17:39.049Z,23.89
2018-06-21T18:20:08.220Z,23.80
2018-06-21T18:22:37.264Z,23.71
2018-06-21T18:25:06.447Z,23.54
2018-06-21T18:27:35.581Z,23.49
2018-06-21T18:30:04.738Z,23.47
2018-06-21T18:32:34.001Z,23.43
2018-06-21T18:35:03.338Z,23.37
2018-06-21T18:37:32.529Z,23.32
2018-06-21T18:40:01.733Z,23.27
2018-06-21T18:42:30.952Z,23.19
2018-06-21T18:45:00.161Z,23.14
2018-06-21T18:47:29.242Z,23.06
2018-06-21T18:49:58.320Z,23.01
2018-06-21T18:52:27.525Z,22.98
2018-06-21T18:54:56.732Z,22.95
2018-06-21T18:57:25.865Z,22.89
2018-06-21T18:59:55.125Z,22.84
2018-06-21T19:02:24.327Z,22.81
2018-06-21T19:04:53.631Z,22.72
2018-06-21T19:07:28.002Z,22.62
2018-06-21T19:10:02.524Z,22.44
2018-06-21T19:12:31.796Z,22.35
2018-06-21T19:15:00.943Z,22.33
2018-06-21T19:17:30.044Z,22.33
2018-06-21T19:19:59.097Z,22.34
2018-06-21T19:22:28.273Z,22.28
2018-06-21T19:24:57.452Z,22.23
2018-06-21T19:27:26.780Z,22.15
2018-06-21T19:29:55.830Z,22.14
2018-06-21T19:32:24.829Z,22.13
2018-06-21T19:34:53.879Z,22.11
2018-06-21T19:37:23.033Z,22.10
2018-06-21T19:39:52.253Z,22.10
2018-06-21T19:42:21.435Z,22.04
2018-06-21T19:44:50.453Z,22.00
2018-06-21T19:47:19.482Z,21.91
2018-06-21T19:49:48.729Z,21.93
2018-06-21T19:52:17.938Z,21.96
2018-06-21T19:54:47.163Z,21.95
2018-06-21T19:57:16.295Z,21.91
2018-06-21T19:59:45.504Z,21.82
2018-06-21T20:02:14.710Z,21.59
2018-06-21T20:04:43.890Z,21.43
2018-06-21T20:07:13.355Z,21.21
2018-06-21T20:09:42.393Z,21.23
2018-06-21T20:12:11.589Z,21.31
2018-06-21T20:14:40.809Z,21.30
2018-06-21T20:17:10.010Z,21.24
2018-06-21T20:19:44.436Z,21.15
2018-06-21T20:22:13.722Z,21.10
2018-06-21T20:24:42.797Z,21.14
2018-06-21T20:27:12.014Z,21.14
2018-06-21T20:29:41.201Z,21.13
2018-06-21T20:32:10.290Z,21.14
2018-06-21T20:34:39.385Z,21.11
2018-06-21T20:37:12.615Z,21.01
2018-06-21T20:39:41.877Z,20.77
2018-06-21T20:42:11.101Z,20.73
2018-06-21T20:44:40.314Z,20.75
2018-06-21T20:47:09.481Z,20.80
2018-06-21T20:49:38.681Z,20.77
2018-06-21T20:52:12.075Z,20.74
2018-06-21T20:54:41.400Z,20.71
2018-06-21T20:57:10.701Z,20.67
2018-06-21T20:59:40.078Z,20.64
2018-06-21T21:02:09.285Z,20.70
2018-06-21T21:05:16.269Z,20.65
2018-06-21T21:07:46.530Z,20.70
2018-06-21T21:10:16.625Z,20.66
2018-06-21T21:12:45.694Z,20.59
2018-06-21T21:15:15.357Z,20.45
2018-06-21T21:17:44.632Z,20.46
2018-06-21T21:20:13.901Z,20.46
2018-06-21T21:22:43.135Z,20.53
2018-06-21T21:25:12.298Z,20.51
2018-06-21T21:27:41.597Z,20.60
2018-06-21T21:30:10.883Z,20.51
2018-06-21T21:32:40.028Z,20.37
2018-06-21T21:35:09.201Z,20.25
2018-06-21T21:37:38.434Z,20.21
2018-06-21T21:40:08.113Z,20.15
2018-06-21T21:42:38.398Z,20.15
2018-06-21T21:45:07.666Z,20.07
2018-06-21T21:47:36.734Z,20.08
2018-06-21T21:50:05.922Z,20.06
2018-06-21T21:52:35.158Z,19.98
2018-06-21T21:55:04.363Z,19.91
2018-06-21T21:57:33.516Z,19.93
2018-06-21T22:00:02.718Z,19.95
2018-06-21T22:02:32.009Z,20.05
2018-06-21T22:05:01.307Z,20.03
2018-06-21T22:07:30.642Z,20.03
2018-06-21T22:09:59.714Z,19.91
2018-06-21T22:12:28.914Z,19.90
2018-06-21T22:14:58.110Z,19.85
2018-06-21T22:17:27.323Z,19.83
2018-06-21T22:19:56.325Z,19.89
2018-06-21T22:22:25.381Z,19.86
2018-06-21T22:24:54.609Z,19.76
2018-06-21T22:27:23.810Z,19.68
2018-06-21T22:29:52.993Z,19.64
2018-06-21T22:32:22.229Z,19.79
2018-06-21T22:34:51.401Z,19.82
2018-06-21T22:37:20.384Z,19.68
2018-06-21T22:39:49.606Z,19.59
2018-06-21T22:42:18.773Z,19.54
2018-06-21T22:44:48.025Z,19.56
2018-06-21T22:47:17.193Z,19.50
2018-06-21T22:49:46.390Z,19.44
2018-06-21T22:52:15.594Z,19.44
2018-06-21T22:54:44.774Z,19.47
2018-06-21T22:57:13.969Z,19.44
2018-06-21T22:59:43.170Z,19.39
2018-06-21T23:02:12.375Z,19.39
2018-06-21T23:04:41.339Z,19.41
2018-06-21T23:07:10.450Z,19.38
2018-06-21T23:09:39.650Z,19.36
2018-06-21T23:12:08.741Z,19.37
2018-06-21T23:14:37.948Z,19.42
2018-06-21T23:17:07.135Z,19.41
2018-06-21T23:19:36.480Z,19.42
2018-06-21T23:22:05.641Z,19.42
2018-06-21T23:24:34.868Z,19.45
2018-06-21T23:27:04.139Z,19.47
2018-06-21T23:29:33.233Z,19.50
2018-06-21T23:32:02.541Z,19.55
2018-06-21T23:34:31.733Z,19.48
2018-06-21T23:37:00.867Z,19.38
2018-06-21T23:39:29.797Z,19.40
2018-06-21T23:41:58.920Z,19.40
2018-06-21T23:44:28.145Z,19.36
2018-06-21T23:46:57.319Z,19.31
2018-06-21T23:49:26.519Z,19.31
2018-06-21T23:51:55.716Z,19.35
2018-06-21T23:54:24.946Z,19.37
2018-06-21T23:56:54.101Z,19.34
2018-06-21T23:59:22.788Z,19.30
